Meteo Giornale » Osservazioni meteo Stati Uniti (USA) » Thermal Desert Resorts

ore: 17:52 - Osservazioni Meteo Thermal Desert Resorts
Lat. 33° 37' N Lon. 116° 9' W Alt. -34 metri s.l.m.

sereno

38 °C

Sereno

Temp. 24 Ore

21 °C

39 °C

Nord

0 Km/h

Dew point 8 °C

Umidità 16 %

Visibilità  10 Km

Il sole sorge alle ore 06:18

Il sole tramonta alle ore 19:10

Data e Ora Cielo e Fenomeni T °C DP °C Um. % Pres. hPa Vis. km Vento km/h
Oggi h: 17:52 sereno Sereno 38 8 16 1006 10 N 0
Oggi h: 16:52 sereno Sereno 37 9 18 1007 10 N 5.5
Oggi h: 15:52 sereno Sereno 38 7 15 1007 10 E/SE 14.8
Oggi h: 14:52 sereno Sereno 38 8 16 1008 10 N 5.5
Oggi h: 13:52 sereno Sereno 39 6 13 1008 10 S 14.8
Oggi h: 12:52 sereno Sereno 37 8 17 1009 10 N 0
Oggi h: 11:52 sereno Sereno 37 5 13 1010 10 N 0
Oggi h: 10:52 sereno Sereno 36 3 12 1011 10 N 5.5
Oggi h: 09:52 sereno Sereno 33 3 15 1011 10 N 0
Oggi h: 08:52 sereno Sereno 31 1 14 1010 10 N 7.4
Oggi h: 07:52 sereno Sereno 28 4 21 1010 10 N 0
Oggi h: 06:52 sereno Sereno 21 5 35 1010 10 N 0
Oggi h: 05:52 sereno Sereno 23 4 28 1009 10 E/SE 7.4
Oggi h: 04:52 sereno Sereno 28 2 18 1009 10 N/NO 14.8
Oggi h: 03:52 sereno Sereno 26 3 22 1009 10 N 7.4
Oggi h: 02:52 sereno Sereno 28 2 18 1009 10 N/NO 9.3
Oggi h: 01:52 sereno Sereno 29 2 17 1009 10 N/NO 9.3
Oggi h: 00:52 sereno Sereno 29 3 18 1008 10 N/NO 9.3
Ieri h: 23:52 sereno Sereno 29 6 23 1008 10 O/NO 11.1
Ieri h: 22:52 sereno Sereno 32 6 19 1008 10 N/NO 22.2
Ieri h: 21:52 sereno Sereno 33 8 21 1007 10 N/NO 24
Ieri h: 20:52 sereno Sereno 34 9 21 1007 10 N/NO 25.9
Ieri h: 18:52 sereno Sereno 38 8 16 1005 10 NO 24